sensor_id;sensor_type;location;lat;lon;timestamp;temperature;humidity
10046;DHT22;5063;50.878;4.742;2022-09-02T00:00:14;17.00;99.90
10046;DHT22;5063;50.878;4.742;2022-09-02T00:02:41;16.90;99.90
10046;DHT22;5063;50.878;4.742;2022-09-02T00:05:07;16.80;99.90
10046;DHT22;5063;50.878;4.742;2022-09-02T00:07:33;16.80;99.90
10046;DHT22;5063;50.878;4.742;2022-09-02T00:09:58;16.70;99.90
10046;DHT22;5063;50.878;4.742;2022-09-02T00:12:25;16.60;99.90
10046;DHT22;5063;50.878;4.742;2022-09-02T00:14:51;16.60;99.90
10046;DHT22;5063;50.878;4.742;2022-09-02T00:17:16;16.70;99.90
10046;DHT22;5063;50.878;4.742;2022-09-02T00:19:42;16.80;99.90
10046;DHT22;5063;50.878;4.742;2022-09-02T00:22:08;16.80;99.90
10046;DHT22;5063;50.878;4.742;2022-09-02T00:24:33;16.90;99.90
10046;DHT22;5063;50.878;4.742;2022-09-02T00:27:00;17.00;99.90
10046;DHT22;5063;50.878;4.742;2022-09-02T00:29:26;17.00;99.90
10046;DHT22;5063;50.878;4.742;2022-09-02T00:31:53;17.00;99.90
10046;DHT22;5063;50.878;4.742;2022-09-02T00:34:19;16.90;99.90
10046;DHT22;5063;50.878;4.742;2022-09-02T00:36:45;16.90;99.90
10046;DHT22;5063;50.878;4.742;2022-09-02T00:39:11;16.90;99.90
10046;DHT22;5063;50.878;4.742;2022-09-02T00:41:39;17.00;99.90
10046;DHT22;5063;50.878;4.742;2022-09-02T00:44:08;17.10;99.90
10046;DHT22;5063;50.878;4.742;2022-09-02T00:46:35;17.20;99.90
10046;DHT22;5063;50.878;4.742;2022-09-02T00:49:24;17.60;99.90
10046;DHT22;5063;50.878;4.742;2022-09-02T00:51:55;17.50;99.90
10046;DHT22;5063;50.878;4.742;2022-09-02T00:54:23;17.50;99.90
10046;DHT22;5063;50.878;4.742;2022-09-02T00:56:50;17.60;99.90
10046;DHT22;5063;50.878;4.742;2022-09-02T00:59:23;17.60;99.90
10046;DHT22;5063;50.878;4.742;2022-09-02T01:01:50;17.50;99.90
10046;DHT22;5063;50.878;4.742;2022-09-02T01:04:15;17.60;99.90
10046;DHT22;5063;50.878;4.742;2022-09-02T01:06:41;17.60;99.90
10046;DHT22;5063;50.878;4.742;2022-09-02T01:09:11;17.60;99.90
10046;DHT22;5063;50.878;4.742;2022-09-02T01:11:46;17.60;99.90
10046;DHT22;5063;50.878;4.742;2022-09-02T01:14:13;17.70;99.90
10046;DHT22;5063;50.878;4.742;2022-09-02T01:16:47;17.70;99.90
10046;DHT22;5063;50.878;4.742;2022-09-02T01:19:27;17.60;99.90
10046;DHT22;5063;50.878;4.742;2022-09-02T01:21:56;17.50;99.90
10046;DHT22;5063;50.878;4.742;2022-09-02T01:24:25;17.40;99.90
10046;DHT22;5063;50.878;4.742;2022-09-02T01:26:53;17.20;99.90
10046;DHT22;5063;50.878;4.742;2022-09-02T01:29:19;17.10;99.90
10046;DHT22;5063;50.878;4.742;2022-09-02T01:31:45;17.00;99.90
10046;DHT22;5063;50.878;4.742;2022-09-02T01:34:11;17.00;99.90
10046;DHT22;5063;50.878;4.742;2022-09-02T01:36:38;16.90;99.90
10046;DHT22;5063;50.878;4.742;2022-09-02T01:39:06;16.70;99.90
10046;DHT22;5063;50.878;4.742;2022-09-02T01:41:32;16.60;99.90
10046;DHT22;5063;50.878;4.742;2022-09-02T01:43:58;16.50;99.90
10046;DHT22;5063;50.878;4.742;2022-09-02T01:46:23;16.50;99.90
10046;DHT22;5063;50.878;4.742;2022-09-02T01:48:50;16.50;99.90
10046;DHT22;5063;50.878;4.742;2022-09-02T01:51:18;16.50;99.90
10046;DHT22;5063;50.878;4.742;2022-09-02T01:53:45;16.50;99.90
10046;DHT22;5063;50.878;4.742;2022-09-02T01:56:11;16.60;99.90
10046;DHT22;5063;50.878;4.742;2022-09-02T01:58:37;16.80;99.90
10046;DHT22;5063;50.878;4.742;2022-09-02T02:01:03;17.00;99.90
10046;DHT22;5063;50.878;4.742;2022-09-02T02:03:29;17.10;99.90
10046;DHT22;5063;50.878;4.742;2022-09-02T02:05:54;17.30;99.90
10046;DHT22;5063;50.878;4.742;2022-09-02T02:08:21;17.40;99.90
10046;DHT22;5063;50.878;4.742;2022-09-02T02:10:47;17.50;99.90
10046;DHT22;5063;50.878;4.742;2022-09-02T02:13:14;17.60;99.90
10046;DHT22;5063;50.878;4.742;2022-09-02T02:15:41;17.60;99.90
10046;DHT22;5063;50.878;4.742;2022-09-02T02:18:08;17.60;99.90
10046;DHT22;5063;50.878;4.742;2022-09-02T02:20:34;17.70;99.90
10046;DHT22;5063;50.878;4.742;2022-09-02T02:23:00;17.60;99.90
10046;DHT22;5063;50.878;4.742;2022-09-02T02:25:26;17.60;99.90
10046;DHT22;5063;50.878;4.742;2022-09-02T02:27:52;17.50;99.90
10046;DHT22;5063;50.878;4.742;2022-09-02T02:30:18;17.50;99.90
10046;DHT22;5063;50.878;4.742;2022-09-02T02:32:45;17.50;99.90
10046;DHT22;5063;50.878;4.742;2022-09-02T02:35:13;17.40;99.90
10046;DHT22;5063;50.878;4.742;2022-09-02T02:37:39;17.40;99.90
10046;DHT22;5063;50.878;4.742;2022-09-02T02:40:06;17.40;99.90
10046;DHT22;5063;50.878;4.742;2022-09-02T02:42:33;17.40;99.90
10046;DHT22;5063;50.878;4.742;2022-09-02T02:44:59;17.40;99.90
10046;DHT22;5063;50.878;4.742;2022-09-02T02:47:25;17.30;99.90
10046;DHT22;5063;50.878;4.742;2022-09-02T02:49:52;17.30;99.90
10046;DHT22;5063;50.878;4.742;2022-09-02T02:52:18;17.30;99.90
10046;DHT22;5063;50.878;4.742;2022-09-02T02:54:44;17.30;99.90
10046;DHT22;5063;50.878;4.742;2022-09-02T02:57:10;17.40;99.90
10046;DHT22;5063;50.878;4.742;2022-09-02T02:59:36;17.40;99.90
10046;DHT22;5063;50.878;4.742;2022-09-02T03:02:04;17.40;99.90
10046;DHT22;5063;50.878;4.742;2022-09-02T03:04:30;17.30;99.90
10046;DHT22;5063;50.878;4.742;2022-09-02T03:06:55;17.20;99.90
10046;DHT22;5063;50.878;4.742;2022-09-02T03:09:21;17.10;99.90
10046;DHT22;5063;50.878;4.742;2022-09-02T03:11:47;17.00;99.90
10046;DHT22;5063;50.878;4.742;2022-09-02T03:14:14;17.00;99.90
10046;DHT22;5063;50.878;4.742;2022-09-02T03:16:39;16.90;99.90
10046;DHT22;5063;50.878;4.742;2022-09-02T03:19:06;16.90;99.90
10046;DHT22;5063;50.878;4.742;2022-09-02T03:21:31;16.80;99.90
10046;DHT22;5063;50.878;4.742;2022-09-02T03:23:57;16.90;99.90
10046;DHT22;5063;50.878;4.742;2022-09-02T03:26:24;16.80;99.90
10046;DHT22;5063;50.878;4.742;2022-09-02T03:28:52;16.80;99.90
10046;DHT22;5063;50.878;4.742;2022-09-02T03:31:21;16.80;99.90
10046;DHT22;5063;50.878;4.742;2022-09-02T03:33:48;16.80;99.90
10046;DHT22;5063;50.878;4.742;2022-09-02T03:36:29;16.70;99.90
10046;DHT22;5063;50.878;4.742;2022-09-02T03:38:56;16.90;99.90
10046;DHT22;5063;50.878;4.742;2022-09-02T03:41:22;17.10;99.90
10046;DHT22;5063;50.878;4.742;2022-09-02T03:43:48;17.20;99.90
10046;DHT22;5063;50.878;4.742;2022-09-02T03:46:14;17.30;99.90
10046;DHT22;5063;50.878;4.742;2022-09-02T03:48:40;17.40;99.90
10046;DHT22;5063;50.878;4.742;2022-09-02T03:51:07;17.40;99.90
10046;DHT22;5063;50.878;4.742;2022-09-02T03:53:33;17.50;99.90
10046;DHT22;5063;50.878;4.742;2022-09-02T03:56:08;17.50;99.90
10046;DHT22;5063;50.878;4.742;2022-09-02T03:58:37;17.60;99.90
10046;DHT22;5063;50.878;4.742;2022-09-02T04:01:04;17.70;99.90
10046;DHT22;5063;50.878;4.742;2022-09-02T04:03:30;17.70;99.90
10046;DHT22;5063;50.878;4.742;2022-09-02T04:05:56;17.70;99.90
10046;DHT22;5063;50.878;4.742;2022-09-02T04:08:22;17.70;99.90
10046;DHT22;5063;50.878;4.742;2022-09-02T04:10:48;17.80;99.90
10046;DHT22;5063;50.878;4.742;2022-09-02T04:13:14;17.80;99.90
10046;DHT22;5063;50.878;4.742;2022-09-02T04:15:44;17.80;99.90
10046;DHT22;5063;50.878;4.742;2022-09-02T04:18:13;17.80;99.90
10046;DHT22;5063;50.878;4.742;2022-09-02T04:20:40;17.70;99.90
10046;DHT22;5063;50.878;4.742;2022-09-02T04:23:07;17.60;99.90
10046;DHT22;5063;50.878;4.742;2022-09-02T04:25:32;17.50;99.90
10046;DHT22;5063;50.878;4.742;2022-09-02T04:27:59;17.50;99.90
10046;DHT22;5063;50.878;4.742;2022-09-02T04:30:25;17.40;99.90
10046;DHT22;5063;50.878;4.742;2022-09-02T04:32:51;17.30;99.90
10046;DHT22;5063;50.878;4.742;2022-09-02T04:35:18;17.20;99.90
10046;DHT22;5063;50.878;4.742;2022-09-02T04:37:43;17.30;99.90
10046;DHT22;5063;50.878;4.742;2022-09-02T04:40:12;17.20;99.90
10046;DHT22;5063;50.878;4.742;2022-09-02T04:42:38;17.20;99.90
10046;DHT22;5063;50.878;4.742;2022-09-02T04:45:04;17.20;99.90
10046;DHT22;5063;50.878;4.742;2022-09-02T04:47:30;17.20;99.90
10046;DHT22;5063;50.878;4.742;2022-09-02T04:49:55;17.10;99.90
10046;DHT22;5063;50.878;4.742;2022-09-02T04:52:21;17.10;99.90
10046;DHT22;5063;50.878;4.742;2022-09-02T04:54:47;17.10;99.90
10046;DHT22;5063;50.878;4.742;2022-09-02T04:57:13;17.20;99.90
10046;DHT22;5063;50.878;4.742;2022-09-02T04:59:39;17.20;99.90
10046;DHT22;5063;50.878;4.742;2022-09-02T05:02:05;17.30;99.90
10046;DHT22;5063;50.878;4.742;2022-09-02T05:04:32;17.40;99.90
10046;DHT22;5063;50.878;4.742;2022-09-02T05:06:58;17.40;99.90
10046;DHT22;5063;50.878;4.742;2022-09-02T05:09:30;17.50;99.90
10046;DHT22;5063;50.878;4.742;2022-09-02T05:11:56;17.70;99.90
10046;DHT22;5063;50.878;4.742;2022-09-02T05:14:23;17.80;99.90
10046;DHT22;5063;50.878;4.742;2022-09-02T05:16:49;17.90;99.90
10046;DHT22;5063;50.878;4.742;2022-09-02T05:19:19;18.00;99.90
10046;DHT22;5063;50.878;4.742;2022-09-02T05:21:46;18.00;99.90
10046;DHT22;5063;50.878;4.742;2022-09-02T05:24:12;18.10;99.90
10046;DHT22;5063;50.878;4.742;2022-09-02T05:26:38;18.10;99.90
10046;DHT22;5063;50.878;4.742;2022-09-02T05:29:10;18.10;99.90
10046;DHT22;5063;50.878;4.742;2022-09-02T05:31:38;18.10;99.90
10046;DHT22;5063;50.878;4.742;2022-09-02T05:34:06;18.10;99.90
10046;DHT22;5063;50.878;4.742;2022-09-02T05:36:33;18.00;99.90
10046;DHT22;5063;50.878;4.742;2022-09-02T05:38:59;18.10;99.90
10046;DHT22;5063;50.878;4.742;2022-09-02T05:41:25;18.10;99.90
10046;DHT22;5063;50.878;4.742;2022-09-02T05:43:55;18.10;99.90
10046;DHT22;5063;50.878;4.742;2022-09-02T05:46:23;18.20;99.90
10046;DHT22;5063;50.878;4.742;2022-09-02T05:48:50;18.20;99.90
10046;DHT22;5063;50.878;4.742;2022-09-02T05:51:41;18.20;99.90
10046;DHT22;5063;50.878;4.742;2022-09-02T05:54:10;18.20;99.90
10046;DHT22;5063;50.878;4.742;2022-09-02T05:56:38;18.30;99.90
10046;DHT22;5063;50.878;4.742;2022-09-02T05:59:03;18.30;99.90
10046;DHT22;5063;50.878;4.742;2022-09-02T06:01:32;18.40;99.90
10046;DHT22;5063;50.878;4.742;2022-09-02T06:03:58;18.50;99.90
10046;DHT22;5063;50.878;4.742;2022-09-02T06:06:30;18.70;99.90
10046;DHT22;5063;50.878;4.742;2022-09-02T06:08:57;18.90;99.90
10046;DHT22;5063;50.878;4.742;2022-09-02T06:11:23;19.10;99.90
10046;DHT22;5063;50.878;4.742;2022-09-02T06:13:50;19.30;99.90
10046;DHT22;5063;50.878;4.742;2022-09-02T06:16:20;19.40;99.90
10046;DHT22;5063;50.878;4.742;2022-09-02T06:18:47;19.50;99.90
10046;DHT22;5063;50.878;4.742;2022-09-02T06:21:14;19.50;99.90
10046;DHT22;5063;50.878;4.742;2022-09-02T06:23:41;19.60;99.90
10046;DHT22;5063;50.878;4.742;2022-09-02T06:26:09;19.70;99.90
10046;DHT22;5063;50.878;4.742;2022-09-02T06:28:35;19.70;99.90
10046;DHT22;5063;50.878;4.742;2022-09-02T06:31:19;19.80;99.90
10046;DHT22;5063;50.878;4.742;2022-09-02T06:33:47;19.90;99.90
10046;DHT22;5063;50.878;4.742;2022-09-02T06:36:17;21.00;99.90
10046;DHT22;5063;50.878;4.742;2022-09-02T06:38:48;22.70;99.90
10046;DHT22;5063;50.878;4.742;2022-09-02T06:41:16;24.10;99.90
10046;DHT22;5063;50.878;4.742;2022-09-02T06:43:43;24.90;99.90
10046;DHT22;5063;50.878;4.742;2022-09-02T06:46:15;24.60;99.90
10046;DHT22;5063;50.878;4.742;2022-09-02T06:48:41;24.50;99.90
10046;DHT22;5063;50.878;4.742;2022-09-02T06:51:07;25.70;99.90
10046;DHT22;5063;50.878;4.742;2022-09-02T06:53:33;26.20;99.90
10046;DHT22;5063;50.878;4.742;2022-09-02T06:55:58;26.60;99.90
10046;DHT22;5063;50.878;4.742;2022-09-02T06:58:24;26.90;99.90
10046;DHT22;5063;50.878;4.742;2022-09-02T07:00:50;27.50;99.90
10046;DHT22;5063;50.878;4.742;2022-09-02T07:03:16;28.10;99.90
10046;DHT22;5063;50.878;4.742;2022-09-02T07:06:06;28.90;99.90
10046;DHT22;5063;50.878;4.742;2022-09-02T07:08:36;28.40;99.90
10046;DHT22;5063;50.878;4.742;2022-09-02T07:11:02;27.20;99.90
10046;DHT22;5063;50.878;4.742;2022-09-02T07:13:28;26.10;99.90
10046;DHT22;5063;50.878;4.742;2022-09-02T07:15:54;25.40;99.90
10046;DHT22;5063;50.878;4.742;2022-09-02T07:18:20;26.30;99.90
10046;DHT22;5063;50.878;4.742;2022-09-02T07:20:46;27.30;99.90
10046;DHT22;5063;50.878;4.742;2022-09-02T07:23:13;27.50;99.90
10046;DHT22;5063;50.878;4.742;2022-09-02T07:25:39;27.90;99.90
10046;DHT22;5063;50.878;4.742;2022-09-02T07:28:07;28.20;99.90
10046;DHT22;5063;50.878;4.742;2022-09-02T07:30:33;28.40;99.90
10046;DHT22;5063;50.878;4.742;2022-09-02T07:32:59;28.70;99.90
10046;DHT22;5063;50.878;4.742;2022-09-02T07:35:26;28.80;99.90
10046;DHT22;5063;50.878;4.742;2022-09-02T07:37:52;27.80;99.90
10046;DHT22;5063;50.878;4.742;2022-09-02T07:40:18;27.30;99.90
10046;DHT22;5063;50.878;4.742;2022-09-02T07:42:44;27.60;99.90
10046;DHT22;5063;50.878;4.742;2022-09-02T07:45:10;28.30;99.90
10046;DHT22;5063;50.878;4.742;2022-09-02T07:47:36;29.30;99.90
10046;DHT22;5063;50.878;4.742;2022-09-02T07:50:02;29.60;99.90
10046;DHT22;5063;50.878;4.742;2022-09-02T07:52:28;29.40;99.90
10046;DHT22;5063;50.878;4.742;2022-09-02T07:54:54;29.10;99.90
10046;DHT22;5063;50.878;4.742;2022-09-02T07:57:20;29.50;99.90
10046;DHT22;5063;50.878;4.742;2022-09-02T07:59:46;29.60;99.90
10046;DHT22;5063;50.878;4.742;2022-09-02T08:02:13;28.60;99.90
10046;DHT22;5063;50.878;4.742;2022-09-02T08:04:39;28.30;99.90
10046;DHT22;5063;50.878;4.742;2022-09-02T08:07:05;27.80;99.90
10046;DHT22;5063;50.878;4.742;2022-09-02T08:09:30;27.50;99.90
10046;DHT22;5063;50.878;4.742;2022-09-02T08:11:56;28.00;99.90
10046;DHT22;5063;50.878;4.742;2022-09-02T08:14:24;28.50;99.90
10046;DHT22;5063;50.878;4.742;2022-09-02T08:16:52;28.80;99.90
10046;DHT22;5063;50.878;4.742;2022-09-02T08:19:18;29.90;99.90
10046;DHT22;5063;50.878;4.742;2022-09-02T08:21:44;30.40;99.90
10046;DHT22;5063;50.878;4.742;2022-09-02T08:24:10;31.20;99.90
10046;DHT22;5063;50.878;4.742;2022-09-02T08:26:36;31.60;99.90
10046;DHT22;5063;50.878;4.742;2022-09-02T08:29:05;31.30;99.80
10046;DHT22;5063;50.878;4.742;2022-09-02T08:31:32;30.80;99.90
10046;DHT22;5063;50.878;4.742;2022-09-02T08:33:58;30.30;99.90
10046;DHT22;5063;50.878;4.742;2022-09-02T08:36:25;29.60;99.90
10046;DHT22;5063;50.878;4.742;2022-09-02T08:38:51;28.90;99.90
10046;DHT22;5063;50.878;4.742;2022-09-02T08:43:46;29.40;99.90
10046;DHT22;5063;50.878;4.742;2022-09-02T08:46:13;30.00;99.90
10046;DHT22;5063;50.878;4.742;2022-09-02T08:49:02;30.60;99.90
10046;DHT22;5063;50.878;4.742;2022-09-02T08:51:30;30.80;99.90
10046;DHT22;5063;50.878;4.742;2022-09-02T08:54:03;30.60;99.90
10046;DHT22;5063;50.878;4.742;2022-09-02T08:56:30;29.70;99.90
10046;DHT22;5063;50.878;4.742;2022-09-02T08:58:56;29.00;99.90
10046;DHT22;5063;50.878;4.742;2022-09-02T09:01:31;28.50;99.90
10046;DHT22;5063;50.878;4.742;2022-09-02T09:12:00;27.90;99.90
10046;DHT22;5063;50.878;4.742;2022-09-02T09:20:10;28.40;99.90
10046;DHT22;5063;50.878;4.742;2022-09-02T09:22:39;28.40;99.90
10046;DHT22;5063;50.878;4.742;2022-09-02T09:25:13;27.80;99.90
10046;DHT22;5063;50.878;4.742;2022-09-02T09:27:40;27.40;99.90
10046;DHT22;5063;50.878;4.742;2022-09-02T09:30:08;27.20;99.90
10046;DHT22;5063;50.878;4.742;2022-09-02T09:32:46;27.20;99.90
10046;DHT22;5063;50.878;4.742;2022-09-02T09:35:15;26.90;99.90
10046;DHT22;5063;50.878;4.742;2022-09-02T09:37:54;27.10;99.90
10046;DHT22;5063;50.878;4.742;2022-09-02T09:40:25;27.20;99.90
10046;DHT22;5063;50.878;4.742;2022-09-02T09:45:45;27.20;99.90
10046;DHT22;5063;50.878;4.742;2022-09-02T09:53:33;26.90;99.90
10046;DHT22;5063;50.878;4.742;2022-09-02T09:56:26;27.10;99.90
10046;DHT22;5063;50.878;4.742;2022-09-02T09:58:53;27.00;99.90
10046;DHT22;5063;50.878;4.742;2022-09-02T10:01:31;26.80;99.90
10046;DHT22;5063;50.878;4.742;2022-09-02T10:04:09;26.90;99.90
10046;DHT22;5063;50.878;4.742;2022-09-02T10:06:37;27.10;99.90
10046;DHT22;5063;50.878;4.742;2022-09-02T10:09:25;27.20;99.90
10046;DHT22;5063;50.878;4.742;2022-09-02T10:11:59;27.40;99.90
10046;DHT22;5063;50.878;4.742;2022-09-02T10:14:37;27.50;99.90
10046;DHT22;5063;50.878;4.742;2022-09-02T10:17:35;27.70;99.90
10046;DHT22;5063;50.878;4.742;2022-09-02T10:20:31;27.90;99.90
10046;DHT22;5063;50.878;4.742;2022-09-02T10:23:19;27.80;99.90
10046;DHT22;5063;50.878;4.742;2022-09-02T10:26:11;27.90;99.90
10046;DHT22;5063;50.878;4.742;2022-09-02T10:28:53;28.10;99.80
10046;DHT22;5063;50.878;4.742;2022-09-02T10:37:19;27.70;99.90
10046;DHT22;5063;50.878;4.742;2022-09-02T10:40:14;27.60;99.90
10046;DHT22;5063;50.878;4.742;2022-09-02T10:42:59;27.30;99.90
10046;DHT22;5063;50.878;4.742;2022-09-02T10:45:45;26.90;99.90
10046;DHT22;5063;50.878;4.742;2022-09-02T10:51:48;27.00;99.30
10046;DHT22;5063;50.878;4.742;2022-09-02T10:57:10;27.10;99.00
10046;DHT22;5063;50.878;4.742;2022-09-02T11:11:12;27.00;97.40
10046;DHT22;5063;50.878;4.742;2022-09-02T11:14:12;27.00;97.80
10046;DHT22;5063;50.878;4.742;2022-09-02T11:17:09;27.30;98.20
10046;DHT22;5063;50.878;4.742;2022-09-02T11:19:54;27.30;98.10
10046;DHT22;5063;50.878;4.742;2022-09-02T11:22:27;27.40;97.90
10046;DHT22;5063;50.878;4.742;2022-09-02T11:27:43;27.30;97.90
10046;DHT22;5063;50.878;4.742;2022-09-02T11:30:18;27.30;97.20
10046;DHT22;5063;50.878;4.742;2022-09-02T11:32:55;27.20;97.10
10046;DHT22;5063;50.878;4.742;2022-09-02T11:35:35;27.10;97.00
10046;DHT22;5063;50.878;4.742;2022-09-02T11:54:44;27.50;95.00
10046;DHT22;5063;50.878;4.742;2022-09-02T11:57:21;27.40;95.00
10046;DHT22;5063;50.878;4.742;2022-09-02T12:02:42;27.70;95.20
10046;DHT22;5063;50.878;4.742;2022-09-02T12:07:56;27.90;93.80
10046;DHT22;5063;50.878;4.742;2022-09-02T12:13:37;28.00;93.40
10046;DHT22;5063;50.878;4.742;2022-09-02T12:18:38;27.70;94.00
10046;DHT22;5063;50.878;4.742;2022-09-02T12:21:07;27.90;94.50
10046;DHT22;5063;50.878;4.742;2022-09-02T12:28:51;28.50;93.00
10046;DHT22;5063;50.878;4.742;2022-09-02T12:31:40;28.40;92.70
10046;DHT22;5063;50.878;4.742;2022-09-02T12:36:54;28.70;92.90
10046;DHT22;5063;50.878;4.742;2022-09-02T12:45:05;28.90;91.90
10046;DHT22;5063;50.878;4.742;2022-09-02T12:50:50;29.60;91.20
10046;DHT22;5063;50.878;4.742;2022-09-02T12:58:55;30.20;90.60
10046;DHT22;5063;50.878;4.742;2022-09-02T13:01:40;30.10;90.10
10046;DHT22;5063;50.878;4.742;2022-09-02T13:06:52;30.10;88.60
10046;DHT22;5063;50.878;4.742;2022-09-02T13:15:22;30.90;86.40
10046;DHT22;5063;50.878;4.742;2022-09-02T13:33:01;30.70;83.00
10046;DHT22;5063;50.878;4.742;2022-09-02T13:35:30;30.50;83.30
10046;DHT22;5063;50.878;4.742;2022-09-02T13:37:58;30.40;81.80
10046;DHT22;5063;50.878;4.742;2022-09-02T13:40:33;30.30;81.60
10046;DHT22;5063;50.878;4.742;2022-09-02T13:43:02;30.40;81.60
10046;DHT22;5063;50.878;4.742;2022-09-02T13:45:35;30.60;81.50
10046;DHT22;5063;50.878;4.742;2022-09-02T13:48:14;30.50;80.10
10046;DHT22;5063;50.878;4.742;2022-09-02T13:50:48;30.10;80.90
10046;DHT22;5063;50.878;4.742;2022-09-02T13:53:37;29.70;80.30
10046;DHT22;5063;50.878;4.742;2022-09-02T13:56:08;30.00;81.40
10046;DHT22;5063;50.878;4.742;2022-09-02T13:58:53;30.10;81.40
10046;DHT22;5063;50.878;4.742;2022-09-02T14:03:54;30.80;80.00
10046;DHT22;5063;50.878;4.742;2022-09-02T14:06:29;31.00;79.40
10046;DHT22;5063;50.878;4.742;2022-09-02T14:08:57;31.00;78.70
10046;DHT22;5063;50.878;4.742;2022-09-02T14:11:25;31.20;78.70
10046;DHT22;5063;50.878;4.742;2022-09-02T14:13:52;31.20;77.50
10046;DHT22;5063;50.878;4.742;2022-09-02T14:16:35;31.10;77.20
10046;DHT22;5063;50.878;4.742;2022-09-02T14:21:34;30.90;77.10
10046;DHT22;5063;50.878;4.742;2022-09-02T14:24:00;30.80;75.40
10046;DHT22;5063;50.878;4.742;2022-09-02T14:26:36;30.70;75.60
10046;DHT22;5063;50.878;4.742;2022-09-02T14:29:06;30.70;75.40
10046;DHT22;5063;50.878;4.742;2022-09-02T14:31:34;30.70;74.90
10046;DHT22;5063;50.878;4.742;2022-09-02T14:34:00;30.70;76.40
10046;DHT22;5063;50.878;4.742;2022-09-02T14:36:34;30.70;75.90
10046;DHT22;5063;50.878;4.742;2022-09-02T14:39:15;30.50;75.70
10046;DHT22;5063;50.878;4.742;2022-09-02T14:41:45;30.30;75.80
10046;DHT22;5063;50.878;4.742;2022-09-02T14:44:29;30.00;76.10
10046;DHT22;5063;50.878;4.742;2022-09-02T14:47:06;29.50;75.80
10046;DHT22;5063;50.878;4.742;2022-09-02T14:49:45;29.20;75.90
10046;DHT22;5063;50.878;4.742;2022-09-02T14:52:16;29.30;75.70
10046;DHT22;5063;50.878;4.742;2022-09-02T14:54:45;29.20;75.30
10046;DHT22;5063;50.878;4.742;2022-09-02T14:57:24;29.40;75.50
10046;DHT22;5063;50.878;4.742;2022-09-02T14:59:54;29.50;76.70
10046;DHT22;5063;50.878;4.742;2022-09-02T15:05:05;30.00;75.20
10046;DHT22;5063;50.878;4.742;2022-09-02T15:07:31;30.20;75.20
10046;DHT22;5063;50.878;4.742;2022-09-02T15:09:58;30.20;74.70
10046;DHT22;5063;50.878;4.742;2022-09-02T15:12:29;30.30;74.60
10046;DHT22;5063;50.878;4.742;2022-09-02T15:14:57;30.60;74.40
10046;DHT22;5063;50.878;4.742;2022-09-02T15:17:23;30.50;74.10
10046;DHT22;5063;50.878;4.742;2022-09-02T15:19:48;30.50;73.70
10046;DHT22;5063;50.878;4.742;2022-09-02T15:22:15;30.70;74.10
10046;DHT22;5063;50.878;4.742;2022-09-02T15:24:41;30.90;73.70
10046;DHT22;5063;50.878;4.742;2022-09-02T15:27:13;31.00;73.20
10046;DHT22;5063;50.878;4.742;2022-09-02T15:29:39;30.80;72.80
10046;DHT22;5063;50.878;4.742;2022-09-02T15:32:05;31.00;73.60
10046;DHT22;5063;50.878;4.742;2022-09-02T15:34:32;31.20;74.20
10046;DHT22;5063;50.878;4.742;2022-09-02T15:36:59;31.50;75.20
10046;DHT22;5063;50.878;4.742;2022-09-02T15:39:26;31.90;72.80
10046;DHT22;5063;50.878;4.742;2022-09-02T15:41:52;32.20;71.50
10046;DHT22;5063;50.878;4.742;2022-09-02T15:44:22;31.80;71.50
10046;DHT22;5063;50.878;4.742;2022-09-02T15:46:52;30.90;72.70
10046;DHT22;5063;50.878;4.742;2022-09-02T15:49:18;30.30;74.00
10046;DHT22;5063;50.878;4.742;2022-09-02T15:51:45;29.70;74.90
10046;DHT22;5063;50.878;4.742;2022-09-02T15:54:13;29.40;75.60
10046;DHT22;5063;50.878;4.742;2022-09-02T15:56:40;29.20;74.00
10046;DHT22;5063;50.878;4.742;2022-09-02T15:59:15;28.90;73.00
10046;DHT22;5063;50.878;4.742;2022-09-02T16:01:44;28.80;73.80
10046;DHT22;5063;50.878;4.742;2022-09-02T16:04:11;28.70;75.10
10046;DHT22;5063;50.878;4.742;2022-09-02T16:06:39;28.60;75.60
10046;DHT22;5063;50.878;4.742;2022-09-02T16:09:09;28.70;75.20
10046;DHT22;5063;50.878;4.742;2022-09-02T16:11:49;28.80;75.20
10046;DHT22;5063;50.878;4.742;2022-09-02T16:14:16;28.80;74.80
10046;DHT22;5063;50.878;4.742;2022-09-02T16:16:42;28.60;75.00
10046;DHT22;5063;50.878;4.742;2022-09-02T16:19:08;28.60;75.40
10046;DHT22;5063;50.878;4.742;2022-09-02T16:21:34;28.50;76.10
10046;DHT22;5063;50.878;4.742;2022-09-02T16:24:03;28.60;76.50
10046;DHT22;5063;50.878;4.742;2022-09-02T16:26:31;28.60;77.30
10046;DHT22;5063;50.878;4.742;2022-09-02T16:29:08;28.90;77.80
10046;DHT22;5063;50.878;4.742;2022-09-02T16:31:36;29.30;77.10
10046;DHT22;5063;50.878;4.742;2022-09-02T16:34:22;29.60;77.10
10046;DHT22;5063;50.878;4.742;2022-09-02T16:36:49;29.90;77.30
10046;DHT22;5063;50.878;4.742;2022-09-02T16:39:18;29.70;77.30
10046;DHT22;5063;50.878;4.742;2022-09-02T16:41:47;29.40;77.30
10046;DHT22;5063;50.878;4.742;2022-09-02T16:44:16;29.20;77.60
10046;DHT22;5063;50.878;4.742;2022-09-02T16:46:43;28.80;78.50
10046;DHT22;5063;50.878;4.742;2022-09-02T16:49:11;28.50;79.10
10046;DHT22;5063;50.878;4.742;2022-09-02T16:51:37;28.20;79.50
10046;DHT22;5063;50.878;4.742;2022-09-02T16:54:06;27.90;79.60
10046;DHT22;5063;50.878;4.742;2022-09-02T16:56:32;27.60;80.10
10046;DHT22;5063;50.878;4.742;2022-09-02T16:59:02;27.30;80.50
10046;DHT22;5063;50.878;4.742;2022-09-02T17:01:29;27.10;81.50
10046;DHT22;5063;50.878;4.742;2022-09-02T17:03:55;26.80;81.90
10046;DHT22;5063;50.878;4.742;2022-09-02T17:06:21;26.60;82.90
10046;DHT22;5063;50.878;4.742;2022-09-02T17:08:47;26.50;83.20
10046;DHT22;5063;50.878;4.742;2022-09-02T17:11:23;26.30;83.20
10046;DHT22;5063;50.878;4.742;2022-09-02T17:13:55;26.20;83.70
10046;DHT22;5063;50.878;4.742;2022-09-02T17:16:24;26.20;84.50
10046;DHT22;5063;50.878;4.742;2022-09-02T17:18:49;26.00;85.40
10046;DHT22;5063;50.878;4.742;2022-09-02T17:21:25;25.90;84.90
10046;DHT22;5063;50.878;4.742;2022-09-02T17:23:52;25.90;85.70
10046;DHT22;5063;50.878;4.742;2022-09-02T17:26:20;25.70;86.50
10046;DHT22;5063;50.878;4.742;2022-09-02T17:28:46;25.70;86.30
10046;DHT22;5063;50.878;4.742;2022-09-02T17:31:17;25.50;86.60
10046;DHT22;5063;50.878;4.742;2022-09-02T17:33:44;25.50;86.60
10046;DHT22;5063;50.878;4.742;2022-09-02T17:36:10;25.40;87.60
10046;DHT22;5063;50.878;4.742;2022-09-02T17:38:36;25.30;87.80
10046;DHT22;5063;50.878;4.742;2022-09-02T17:41:01;25.20;88.70
10046;DHT22;5063;50.878;4.742;2022-09-02T17:43:45;25.10;89.00
10046;DHT22;5063;50.878;4.742;2022-09-02T17:46:11;25.00;89.10
10046;DHT22;5063;50.878;4.742;2022-09-02T17:48:37;24.90;89.00
10046;DHT22;5063;50.878;4.742;2022-09-02T17:51:02;24.90;89.00
10046;DHT22;5063;50.878;4.742;2022-09-02T17:53:28;24.80;89.70
10046;DHT22;5063;50.878;4.742;2022-09-02T18:03:07;24.50;90.00
10046;DHT22;5063;50.878;4.742;2022-09-02T18:05:07;24.40;90.20
10046;DHT22;5063;50.878;4.742;2022-09-02T18:10:11;24.30;90.30
10046;DHT22;5063;50.878;4.742;2022-09-02T18:12:38;24.30;90.30
10046;DHT22;5063;50.878;4.742;2022-09-02T18:15:05;24.20;90.60
10046;DHT22;5063;50.878;4.742;2022-09-02T18:20:12;24.00;91.00
10046;DHT22;5063;50.878;4.742;2022-09-02T18:25:23;23.90;91.20